sensor_id;sensor_type;location;lat;lon;timestamp;P1;durP1;ratioP1;P2;durP2;ratioP2
39020;SDS011;25188;51.958;5.842;2022-08-27T00:01:59;5.35;;;1.00;;
39020;SDS011;25188;51.958;5.842;2022-08-27T00:04:24;6.03;;;1.05;;
39020;SDS011;25188;51.958;5.842;2022-08-27T00:06:51;5.90;;;1.13;;
39020;SDS011;25188;51.958;5.842;2022-08-27T00:09:16;4.00;;;1.20;;
39020;SDS011;25188;51.958;5.842;2022-08-27T00:11:42;4.93;;;1.23;;
39020;SDS011;25188;51.958;5.842;2022-08-27T00:14:09;3.83;;;0.90;;
39020;SDS011;25188;51.958;5.842;2022-08-27T00:16:34;2.70;;;1.10;;
39020;SDS011;25188;51.958;5.842;2022-08-27T00:19:00;4.50;;;1.25;;
39020;SDS011;25188;51.958;5.842;2022-08-27T00:21:25;6.10;;;1.10;;
39020;SDS011;25188;51.958;5.842;2022-08-27T00:23:51;5.25;;;1.00;;
39020;SDS011;25188;51.958;5.842;2022-08-27T00:26:17;5.85;;;1.50;;
39020;SDS011;25188;51.958;5.842;2022-08-27T00:28:43;4.43;;;1.02;;
39020;SDS011;25188;51.958;5.842;2022-08-27T00:31:11;3.05;;;0.82;;
39020;SDS011;25188;51.958;5.842;2022-08-27T00:33:37;4.45;;;1.38;;
39020;SDS011;25188;51.958;5.842;2022-08-27T00:36:03;6.05;;;1.23;;
39020;SDS011;25188;51.958;5.842;2022-08-27T00:38:29;4.93;;;1.33;;
39020;SDS011;25188;51.958;5.842;2022-08-27T00:40:55;3.55;;;1.38;;
39020;SDS011;25188;51.958;5.842;2022-08-27T00:43:22;8.00;;;1.35;;
39020;SDS011;25188;51.958;5.842;2022-08-27T00:46:02;4.30;;;1.15;;
39020;SDS011;25188;51.958;5.842;2022-08-27T00:48:32;3.50;;;1.13;;
39020;SDS011;25188;51.958;5.842;2022-08-27T00:50:59;5.43;;;1.20;;
39020;SDS011;25188;51.958;5.842;2022-08-27T00:53:27;3.53;;;0.70;;
39020;SDS011;25188;51.958;5.842;2022-08-27T00:56:31;7.38;;;0.90;;
39020;SDS011;25188;51.958;5.842;2022-08-27T00:58:52;5.50;;;0.98;;
39020;SDS011;25188;51.958;5.842;2022-08-27T01:01:20;9.70;;;1.90;;
39020;SDS011;25188;51.958;5.842;2022-08-27T01:03:50;4.90;;;1.02;;
39020;SDS011;25188;51.958;5.842;2022-08-27T01:06:19;3.40;;;0.98;;
39020;SDS011;25188;51.958;5.842;2022-08-27T01:08:50;3.35;;;0.90;;
39020;SDS011;25188;51.958;5.842;2022-08-27T01:11:19;4.13;;;1.10;;
39020;SDS011;25188;51.958;5.842;2022-08-27T01:13:45;3.45;;;0.80;;
39020;SDS011;25188;51.958;5.842;2022-08-27T01:16:11;6.88;;;1.48;;
39020;SDS011;25188;51.958;5.842;2022-08-27T01:18:44;4.85;;;1.20;;
39020;SDS011;25188;51.958;5.842;2022-08-27T01:23:59;4.15;;;1.15;;
39020;SDS011;25188;51.958;5.842;2022-08-27T01:26:30;3.05;;;0.98;;
39020;SDS011;25188;51.958;5.842;2022-08-27T01:28:56;4.30;;;1.23;;
39020;SDS011;25188;51.958;5.842;2022-08-27T01:31:22;3.70;;;1.13;;
39020;SDS011;25188;51.958;5.842;2022-08-27T01:34:02;4.50;;;1.20;;
39020;SDS011;25188;51.958;5.842;2022-08-27T01:36:29;5.05;;;1.38;;
39020;SDS011;25188;51.958;5.842;2022-08-27T01:38:55;5.88;;;1.30;;
39020;SDS011;25188;51.958;5.842;2022-08-27T01:41:21;4.22;;;1.00;;
39020;SDS011;25188;51.958;5.842;2022-08-27T01:43:48;5.93;;;1.02;;
39020;SDS011;25188;51.958;5.842;2022-08-27T01:46:14;6.05;;;1.10;;
39020;SDS011;25188;51.958;5.842;2022-08-27T01:48:44;6.05;;;1.25;;
39020;SDS011;25188;51.958;5.842;2022-08-27T01:51:10;7.60;;;1.50;;
39020;SDS011;25188;51.958;5.842;2022-08-27T01:53:36;4.35;;;1.10;;
39020;SDS011;25188;51.958;5.842;2022-08-27T01:56:02;5.25;;;1.08;;
39020;SDS011;25188;51.958;5.842;2022-08-27T01:58:29;4.70;;;1.23;;
39020;SDS011;25188;51.958;5.842;2022-08-27T02:00:56;4.03;;;0.98;;
39020;SDS011;25188;51.958;5.842;2022-08-27T02:03:24;8.48;;;1.23;;
39020;SDS011;25188;51.958;5.842;2022-08-27T02:05:50;5.28;;;1.20;;
39020;SDS011;25188;51.958;5.842;2022-08-27T02:08:17;5.90;;;1.35;;
39020;SDS011;25188;51.958;5.842;2022-08-27T02:10:44;4.72;;;1.00;;
39020;SDS011;25188;51.958;5.842;2022-08-27T02:13:10;4.43;;;1.17;;
39020;SDS011;25188;51.958;5.842;2022-08-27T02:15:37;6.07;;;1.33;;
39020;SDS011;25188;51.958;5.842;2022-08-27T02:18:04;9.27;;;1.45;;
39020;SDS011;25188;51.958;5.842;2022-08-27T02:20:31;5.35;;;1.55;;
39020;SDS011;25188;51.958;5.842;2022-08-27T02:22:57;5.53;;;1.33;;
39020;SDS011;25188;51.958;5.842;2022-08-27T02:25:24;5.65;;;1.30;;
39020;SDS011;25188;51.958;5.842;2022-08-27T02:27:51;8.82;;;1.40;;
39020;SDS011;25188;51.958;5.842;2022-08-27T02:30:18;4.65;;;1.27;;
39020;SDS011;25188;51.958;5.842;2022-08-27T02:32:46;4.10;;;1.10;;
39020;SDS011;25188;51.958;5.842;2022-08-27T02:35:16;3.47;;;0.98;;
39020;SDS011;25188;51.958;5.842;2022-08-27T02:37:43;4.68;;;1.20;;
39020;SDS011;25188;51.958;5.842;2022-08-27T02:40:10;5.10;;;1.30;;
39020;SDS011;25188;51.958;5.842;2022-08-27T02:42:41;5.20;;;1.23;;
39020;SDS011;25188;51.958;5.842;2022-08-27T02:45:07;4.40;;;1.00;;
39020;SDS011;25188;51.958;5.842;2022-08-27T02:47:33;6.05;;;1.38;;
39020;SDS011;25188;51.958;5.842;2022-08-27T02:49:59;5.28;;;1.40;;
39020;SDS011;25188;51.958;5.842;2022-08-27T02:52:25;5.13;;;1.55;;
39020;SDS011;25188;51.958;5.842;2022-08-27T02:54:53;4.93;;;1.10;;
39020;SDS011;25188;51.958;5.842;2022-08-27T02:57:19;4.95;;;1.55;;
39020;SDS011;25188;51.958;5.842;2022-08-27T02:59:45;3.13;;;1.05;;
39020;SDS011;25188;51.958;5.842;2022-08-27T03:02:11;4.57;;;1.35;;
39020;SDS011;25188;51.958;5.842;2022-08-27T03:04:37;5.07;;;1.35;;
39020;SDS011;25188;51.958;5.842;2022-08-27T03:07:02;6.00;;;1.17;;
39020;SDS011;25188;51.958;5.842;2022-08-27T03:09:28;6.25;;;1.63;;
39020;SDS011;25188;51.958;5.842;2022-08-27T03:11:54;3.03;;;1.13;;
39020;SDS011;25188;51.958;5.842;2022-08-27T03:14:20;5.85;;;1.20;;
39020;SDS011;25188;51.958;5.842;2022-08-27T03:16:46;7.97;;;1.35;;
39020;SDS011;25188;51.958;5.842;2022-08-27T03:19:11;2.95;;;1.00;;
39020;SDS011;25188;51.958;5.842;2022-08-27T03:21:37;4.68;;;1.20;;
39020;SDS011;25188;51.958;5.842;2022-08-27T03:24:03;3.50;;;1.20;;
39020;SDS011;25188;51.958;5.842;2022-08-27T03:26:29;3.95;;;1.38;;
39020;SDS011;25188;51.958;5.842;2022-08-27T03:28:58;4.47;;;1.08;;
39020;SDS011;25188;51.958;5.842;2022-08-27T03:31:25;6.78;;;1.17;;
39020;SDS011;25188;51.958;5.842;2022-08-27T03:33:55;5.35;;;1.05;;
39020;SDS011;25188;51.958;5.842;2022-08-27T03:36:24;5.82;;;1.83;;
39020;SDS011;25188;51.958;5.842;2022-08-27T03:38:51;5.57;;;1.05;;
39020;SDS011;25188;51.958;5.842;2022-08-27T03:41:17;4.80;;;1.42;;
39020;SDS011;25188;51.958;5.842;2022-08-27T03:43:43;4.55;;;1.30;;
39020;SDS011;25188;51.958;5.842;2022-08-27T03:46:09;4.85;;;1.45;;
39020;SDS011;25188;51.958;5.842;2022-08-27T03:48:35;6.30;;;1.02;;
39020;SDS011;25188;51.958;5.842;2022-08-27T03:51:11;6.95;;;1.60;;
39020;SDS011;25188;51.958;5.842;2022-08-27T03:53:39;5.32;;;1.15;;
39020;SDS011;25188;51.958;5.842;2022-08-27T03:56:07;6.97;;;1.58;;
39020;SDS011;25188;51.958;5.842;2022-08-27T03:58:34;6.03;;;1.45;;
39020;SDS011;25188;51.958;5.842;2022-08-27T04:01:00;4.18;;;1.20;;
39020;SDS011;25188;51.958;5.842;2022-08-27T04:03:27;5.10;;;1.40;;
39020;SDS011;25188;51.958;5.842;2022-08-27T04:05:53;5.88;;;1.30;;
39020;SDS011;25188;51.958;5.842;2022-08-27T04:08:19;7.30;;;1.30;;
39020;SDS011;25188;51.958;5.842;2022-08-27T04:10:47;3.35;;;1.15;;
39020;SDS011;25188;51.958;5.842;2022-08-27T04:13:13;4.65;;;1.63;;
39020;SDS011;25188;51.958;5.842;2022-08-27T04:15:43;5.63;;;1.42;;
39020;SDS011;25188;51.958;5.842;2022-08-27T04:18:11;4.78;;;1.35;;
39020;SDS011;25188;51.958;5.842;2022-08-27T04:20:38;3.85;;;1.48;;
39020;SDS011;25188;51.958;5.842;2022-08-27T04:23:04;4.35;;;1.15;;
39020;SDS011;25188;51.958;5.842;2022-08-27T04:25:30;4.72;;;1.38;;
39020;SDS011;25188;51.958;5.842;2022-08-27T04:27:56;4.63;;;1.52;;
39020;SDS011;25188;51.958;5.842;2022-08-27T04:30:22;5.40;;;1.55;;
39020;SDS011;25188;51.958;5.842;2022-08-27T04:32:47;4.18;;;1.20;;
39020;SDS011;25188;51.958;5.842;2022-08-27T04:35:14;6.10;;;1.65;;
39020;SDS011;25188;51.958;5.842;2022-08-27T04:37:40;4.47;;;1.75;;
39020;SDS011;25188;51.958;5.842;2022-08-27T04:40:06;7.00;;;2.08;;
39020;SDS011;25188;51.958;5.842;2022-08-27T04:42:33;3.70;;;1.50;;
39020;SDS011;25188;51.958;5.842;2022-08-27T04:44:59;5.05;;;1.15;;
39020;SDS011;25188;51.958;5.842;2022-08-27T04:47:24;4.47;;;1.48;;
39020;SDS011;25188;51.958;5.842;2022-08-27T04:49:50;5.15;;;1.50;;
39020;SDS011;25188;51.958;5.842;2022-08-27T04:52:15;4.40;;;1.25;;
39020;SDS011;25188;51.958;5.842;2022-08-27T04:54:41;6.00;;;1.40;;
39020;SDS011;25188;51.958;5.842;2022-08-27T04:57:07;4.38;;;1.48;;
39020;SDS011;25188;51.958;5.842;2022-08-27T04:59:33;5.78;;;2.25;;
39020;SDS011;25188;51.958;5.842;2022-08-27T05:02:00;4.13;;;1.45;;
39020;SDS011;25188;51.958;5.842;2022-08-27T05:04:26;6.93;;;1.73;;
39020;SDS011;25188;51.958;5.842;2022-08-27T05:06:53;8.90;;;1.75;;
39020;SDS011;25188;51.958;5.842;2022-08-27T05:09:19;6.18;;;1.83;;
39020;SDS011;25188;51.958;5.842;2022-08-27T05:11:45;4.40;;;1.75;;
39020;SDS011;25188;51.958;5.842;2022-08-27T05:14:12;4.40;;;1.67;;
39020;SDS011;25188;51.958;5.842;2022-08-27T05:16:39;8.18;;;1.70;;
39020;SDS011;25188;51.958;5.842;2022-08-27T05:19:05;4.82;;;1.92;;
39020;SDS011;25188;51.958;5.842;2022-08-27T05:21:39;3.80;;;1.50;;
39020;SDS011;25188;51.958;5.842;2022-08-27T05:24:10;4.95;;;1.70;;
39020;SDS011;25188;51.958;5.842;2022-08-27T05:26:36;5.10;;;1.50;;
39020;SDS011;25188;51.958;5.842;2022-08-27T05:29:02;6.47;;;1.73;;
39020;SDS011;25188;51.958;5.842;2022-08-27T05:31:29;5.82;;;1.98;;
39020;SDS011;25188;51.958;5.842;2022-08-27T05:33:55;7.25;;;2.03;;
39020;SDS011;25188;51.958;5.842;2022-08-27T05:36:22;4.63;;;1.55;;
39020;SDS011;25188;51.958;5.842;2022-08-27T05:38:50;6.32;;;1.75;;
39020;SDS011;25188;51.958;5.842;2022-08-27T05:41:18;6.30;;;2.10;;
39020;SDS011;25188;51.958;5.842;2022-08-27T05:43:46;6.15;;;1.60;;
39020;SDS011;25188;51.958;5.842;2022-08-27T05:46:13;8.85;;;2.00;;
39020;SDS011;25188;51.958;5.842;2022-08-27T05:48:41;5.28;;;1.75;;
39020;SDS011;25188;51.958;5.842;2022-08-27T05:51:08;6.13;;;1.98;;
39020;SDS011;25188;51.958;5.842;2022-08-27T05:53:36;7.20;;;2.13;;
39020;SDS011;25188;51.958;5.842;2022-08-27T05:56:02;5.30;;;1.92;;
39020;SDS011;25188;51.958;5.842;2022-08-27T05:58:28;5.63;;;2.00;;
39020;SDS011;25188;51.958;5.842;2022-08-27T06:03:38;6.47;;;1.83;;
39020;SDS011;25188;51.958;5.842;2022-08-27T06:06:06;8.15;;;2.58;;
39020;SDS011;25188;51.958;5.842;2022-08-27T06:08:35;5.50;;;1.80;;
39020;SDS011;25188;51.958;5.842;2022-08-27T06:11:02;5.00;;;1.80;;
39020;SDS011;25188;51.958;5.842;2022-08-27T06:13:30;5.57;;;2.08;;
39020;SDS011;25188;51.958;5.842;2022-08-27T06:16:05;6.30;;;1.58;;
39020;SDS011;25188;51.958;5.842;2022-08-27T06:18:32;5.15;;;1.60;;
39020;SDS011;25188;51.958;5.842;2022-08-27T06:20:59;6.38;;;1.73;;
39020;SDS011;25188;51.958;5.842;2022-08-27T06:23:25;5.80;;;1.95;;
39020;SDS011;25188;51.958;5.842;2022-08-27T06:25:51;4.15;;;1.45;;
39020;SDS011;25188;51.958;5.842;2022-08-27T06:28:20;4.95;;;1.63;;
39020;SDS011;25188;51.958;5.842;2022-08-27T06:30:48;8.50;;;2.20;;
39020;SDS011;25188;51.958;5.842;2022-08-27T06:33:14;5.13;;;1.50;;
39020;SDS011;25188;51.958;5.842;2022-08-27T06:35:40;4.93;;;1.77;;
39020;SDS011;25188;51.958;5.842;2022-08-27T06:38:06;4.10;;;1.40;;
39020;SDS011;25188;51.958;5.842;2022-08-27T06:40:32;6.97;;;1.58;;
39020;SDS011;25188;51.958;5.842;2022-08-27T06:42:58;5.55;;;1.40;;
39020;SDS011;25188;51.958;5.842;2022-08-27T06:45:24;7.95;;;1.95;;
39020;SDS011;25188;51.958;5.842;2022-08-27T06:47:50;4.20;;;1.48;;
39020;SDS011;25188;51.958;5.842;2022-08-27T06:50:16;5.93;;;1.27;;
39020;SDS011;25188;51.958;5.842;2022-08-27T06:52:42;4.30;;;1.00;;
39020;SDS011;25188;51.958;5.842;2022-08-27T06:55:08;4.35;;;1.50;;
39020;SDS011;25188;51.958;5.842;2022-08-27T06:57:35;4.57;;;1.20;;
39020;SDS011;25188;51.958;5.842;2022-08-27T07:00:01;3.88;;;1.10;;
39020;SDS011;25188;51.958;5.842;2022-08-27T07:02:28;3.75;;;1.05;;
39020;SDS011;25188;51.958;5.842;2022-08-27T07:04:54;2.95;;;1.08;;
39020;SDS011;25188;51.958;5.842;2022-08-27T07:07:19;3.75;;;0.98;;
39020;SDS011;25188;51.958;5.842;2022-08-27T07:09:45;3.03;;;0.80;;
39020;SDS011;25188;51.958;5.842;2022-08-27T07:12:11;5.82;;;1.35;;
39020;SDS011;25188;51.958;5.842;2022-08-27T07:14:36;4.13;;;1.10;;
39020;SDS011;25188;51.958;5.842;2022-08-27T07:17:02;5.40;;;1.02;;
39020;SDS011;25188;51.958;5.842;2022-08-27T07:19:28;3.95;;;1.10;;
39020;SDS011;25188;51.958;5.842;2022-08-27T07:21:56;3.08;;;0.80;;
39020;SDS011;25188;51.958;5.842;2022-08-27T07:24:23;5.60;;;1.25;;
39020;SDS011;25188;51.958;5.842;2022-08-27T07:26:48;4.63;;;1.10;;
39020;SDS011;25188;51.958;5.842;2022-08-27T07:29:14;3.38;;;0.85;;
39020;SDS011;25188;51.958;5.842;2022-08-27T07:31:40;4.38;;;1.15;;
39020;SDS011;25188;51.958;5.842;2022-08-27T07:34:06;3.58;;;0.90;;
39020;SDS011;25188;51.958;5.842;2022-08-27T07:36:34;2.90;;;0.80;;
39020;SDS011;25188;51.958;5.842;2022-08-27T07:39:01;3.70;;;0.90;;
39020;SDS011;25188;51.958;5.842;2022-08-27T07:41:26;3.58;;;0.90;;
39020;SDS011;25188;51.958;5.842;2022-08-27T07:43:53;2.95;;;0.93;;
39020;SDS011;25188;51.958;5.842;2022-08-27T07:46:37;4.97;;;0.80;;
39020;SDS011;25188;51.958;5.842;2022-08-27T07:49:02;3.22;;;0.63;;
39020;SDS011;25188;51.958;5.842;2022-08-27T07:51:28;2.80;;;0.60;;
39020;SDS011;25188;51.958;5.842;2022-08-27T07:54:00;3.95;;;0.80;;
39020;SDS011;25188;51.958;5.842;2022-08-27T07:56:26;3.13;;;0.60;;
39020;SDS011;25188;51.958;5.842;2022-08-27T07:58:53;3.53;;;0.60;;
39020;SDS011;25188;51.958;5.842;2022-08-27T08:01:18;4.30;;;0.93;;
39020;SDS011;25188;51.958;5.842;2022-08-27T08:03:44;3.50;;;0.70;;
39020;SDS011;25188;51.958;5.842;2022-08-27T08:06:12;2.70;;;0.65;;
39020;SDS011;25188;51.958;5.842;2022-08-27T08:08:39;3.65;;;0.98;;
39020;SDS011;25188;51.958;5.842;2022-08-27T08:11:09;4.63;;;0.77;;
39020;SDS011;25188;51.958;5.842;2022-08-27T08:13:36;2.03;;;0.40;;
39020;SDS011;25188;51.958;5.842;2022-08-27T08:16:02;2.30;;;0.82;;
39020;SDS011;25188;51.958;5.842;2022-08-27T08:18:28;2.90;;;0.40;;
39020;SDS011;25188;51.958;5.842;2022-08-27T08:21:01;1.67;;;0.60;;
39020;SDS011;25188;51.958;5.842;2022-08-27T08:23:34;6.22;;;0.85;;
39020;SDS011;25188;51.958;5.842;2022-08-27T08:26:00;2.90;;;0.60;;
39020;SDS011;25188;51.958;5.842;2022-08-27T08:28:26;3.45;;;0.70;;
39020;SDS011;25188;51.958;5.842;2022-08-27T08:30:53;3.80;;;0.60;;
39020;SDS011;25188;51.958;5.842;2022-08-27T08:33:18;2.92;;;0.57;;
39020;SDS011;25188;51.958;5.842;2022-08-27T08:35:45;2.35;;;0.70;;
39020;SDS011;25188;51.958;5.842;2022-08-27T08:38:12;4.28;;;0.60;;
39020;SDS011;25188;51.958;5.842;2022-08-27T08:40:41;2.33;;;0.68;;
39020;SDS011;25188;51.958;5.842;2022-08-27T08:43:19;4.97;;;0.90;;
39020;SDS011;25188;51.958;5.842;2022-08-27T08:46:00;3.67;;;0.70;;
39020;SDS011;25188;51.958;5.842;2022-08-27T08:48:32;2.05;;;0.52;;
39020;SDS011;25188;51.958;5.842;2022-08-27T08:51:12;2.13;;;0.60;;
39020;SDS011;25188;51.958;5.842;2022-08-27T08:53:57;3.78;;;0.60;;
39020;SDS011;25188;51.958;5.842;2022-08-27T08:56:25;3.42;;;0.50;;
39020;SDS011;25188;51.958;5.842;2022-08-27T08:59:07;4.55;;;0.50;;
39020;SDS011;25188;51.958;5.842;2022-08-27T09:01:38;4.80;;;0.52;;
39020;SDS011;25188;51.958;5.842;2022-08-27T09:04:06;4.65;;;0.52;;
39020;SDS011;25188;51.958;5.842;2022-08-27T09:06:49;2.83;;;0.50;;
39020;SDS011;25188;51.958;5.842;2022-08-27T09:09:36;3.80;;;0.65;;
39020;SDS011;25188;51.958;5.842;2022-08-27T09:12:15;8.82;;;0.60;;
39020;SDS011;25188;51.958;5.842;2022-08-27T09:15:00;4.53;;;0.50;;
39020;SDS011;25188;51.958;5.842;2022-08-27T09:17:31;2.65;;;0.47;;
39020;SDS011;25188;51.958;5.842;2022-08-27T09:19:58;4.50;;;0.52;;
39020;SDS011;25188;51.958;5.842;2022-08-27T09:25:13;2.42;;;0.40;;
39020;SDS011;25188;51.958;5.842;2022-08-27T09:27:45;1.58;;;0.43;;
39020;SDS011;25188;51.958;5.842;2022-08-27T09:30:21;2.28;;;0.50;;
39020;SDS011;25188;51.958;5.842;2022-08-27T09:32:53;7.50;;;0.57;;
39020;SDS011;25188;51.958;5.842;2022-08-27T09:35:22;2.55;;;0.47;;
39020;SDS011;25188;51.958;5.842;2022-08-27T09:37:52;2.40;;;0.80;;
39020;SDS011;25188;51.958;5.842;2022-08-27T09:40:37;2.38;;;0.60;;
39020;SDS011;25188;51.958;5.842;2022-08-27T09:43:08;1.08;;;0.30;;
39020;SDS011;25188;51.958;5.842;2022-08-27T09:45:49;4.07;;;0.50;;
39020;SDS011;25188;51.958;5.842;2022-08-27T09:48:21;1.92;;;0.50;;
39020;SDS011;25188;51.958;5.842;2022-08-27T09:50:53;3.38;;;0.47;;
39020;SDS011;25188;51.958;5.842;2022-08-27T09:55:58;3.75;;;0.60;;
39020;SDS011;25188;51.958;5.842;2022-08-27T09:58:29;1.60;;;0.50;;
39020;SDS011;25188;51.958;5.842;2022-08-27T10:01:21;3.40;;;0.60;;
39020;SDS011;25188;51.958;5.842;2022-08-27T10:03:49;4.05;;;0.60;;
39020;SDS011;25188;51.958;5.842;2022-08-27T10:06:27;3.50;;;0.47;;
39020;SDS011;25188;51.958;5.842;2022-08-27T10:09:09;2.70;;;0.50;;
39020;SDS011;25188;51.958;5.842;2022-08-27T10:11:45;3.88;;;0.60;;
39020;SDS011;25188;51.958;5.842;2022-08-27T10:17:00;4.70;;;0.88;;
39020;SDS011;25188;51.958;5.842;2022-08-27T10:27:45;1.73;;;0.50;;
39020;SDS011;25188;51.958;5.842;2022-08-27T10:30:41;3.60;;;0.65;;
39020;SDS011;25188;51.958;5.842;2022-08-27T10:38:49;3.28;;;0.73;;
39020;SDS011;25188;51.958;5.842;2022-08-27T10:41:46;6.18;;;0.77;;
39020;SDS011;25188;51.958;5.842;2022-08-27T10:44:29;8.35;;;0.95;;
39020;SDS011;25188;51.958;5.842;2022-08-27T10:47:01;3.70;;;0.88;;
39020;SDS011;25188;51.958;5.842;2022-08-27T10:52:22;3.22;;;1.02;;
39020;SDS011;25188;51.958;5.842;2022-08-27T10:54:56;3.00;;;0.50;;
39020;SDS011;25188;51.958;5.842;2022-08-27T11:05:56;3.20;;;0.60;;
39020;SDS011;25188;51.958;5.842;2022-08-27T11:08:43;3.25;;;0.68;;
39020;SDS011;25188;51.958;5.842;2022-08-27T11:14:28;4.90;;;0.38;;
39020;SDS011;25188;51.958;5.842;2022-08-27T11:17:16;2.38;;;0.50;;
39020;SDS011;25188;51.958;5.842;2022-08-27T11:20:00;2.53;;;0.40;;
39020;SDS011;25188;51.958;5.842;2022-08-27T11:22:43;5.50;;;0.60;;
39020;SDS011;25188;51.958;5.842;2022-08-27T11:27:51;3.13;;;0.60;;
39020;SDS011;25188;51.958;5.842;2022-08-27T11:35:54;3.70;;;0.60;;
39020;SDS011;25188;51.958;5.842;2022-08-27T11:44:22;2.88;;;0.65;;
39020;SDS011;25188;51.958;5.842;2022-08-27T11:46:52;3.40;;;0.50;;
39020;SDS011;25188;51.958;5.842;2022-08-27T11:50:15;2.42;;;0.60;;
39020;SDS011;25188;51.958;5.842;2022-08-27T11:52:26;4.17;;;0.83;;
39020;SDS011;25188;51.958;5.842;2022-08-27T11:57:37;1.88;;;0.50;;
39020;SDS011;25188;51.958;5.842;2022-08-27T12:02:40;2.15;;;0.57;;
39020;SDS011;25188;51.958;5.842;2022-08-27T12:05:21;4.40;;;0.60;;
39020;SDS011;25188;51.958;5.842;2022-08-27T12:07:57;3.67;;;0.60;;
39020;SDS011;25188;51.958;5.842;2022-08-27T12:26:34;4.25;;;0.75;;
39020;SDS011;25188;51.958;5.842;2022-08-27T12:34:57;2.00;;;0.60;;
39020;SDS011;25188;51.958;5.842;2022-08-27T12:37:28;2.10;;;0.40;;
39020;SDS011;25188;51.958;5.842;2022-08-27T12:39:56;3.28;;;0.50;;
39020;SDS011;25188;51.958;5.842;2022-08-27T12:42:25;2.67;;;0.50;;
39020;SDS011;25188;51.958;5.842;2022-08-27T12:44:55;2.63;;;0.50;;
39020;SDS011;25188;51.958;5.842;2022-08-27T12:47:21;3.53;;;0.52;;
39020;SDS011;25188;51.958;5.842;2022-08-27T12:49:48;2.42;;;0.57;;
39020;SDS011;25188;51.958;5.842;2022-08-27T12:52:42;3.33;;;0.45;;
39020;SDS011;25188;51.958;5.842;2022-08-27T12:55:35;2.47;;;0.35;;
39020;SDS011;25188;51.958;5.842;2022-08-27T13:03:48;4.30;;;0.70;;
39020;SDS011;25188;51.958;5.842;2022-08-27T13:06:19;4.72;;;0.52;;
39020;SDS011;25188;51.958;5.842;2022-08-27T13:08:54;3.20;;;0.55;;
39020;SDS011;25188;51.958;5.842;2022-08-27T13:11:30;3.95;;;0.60;;
39020;SDS011;25188;51.958;5.842;2022-08-27T13:14:08;3.47;;;0.60;;
39020;SDS011;25188;51.958;5.842;2022-08-27T13:16:35;4.72;;;0.57;;
39020;SDS011;25188;51.958;5.842;2022-08-27T13:19:03;2.67;;;0.60;;
39020;SDS011;25188;51.958;5.842;2022-08-27T13:21:30;1.73;;;0.30;;
39020;SDS011;25188;51.958;5.842;2022-08-27T13:24:01;3.95;;;0.47;;
39020;SDS011;25188;51.958;5.842;2022-08-27T13:26:30;5.05;;;0.60;;
39020;SDS011;25188;51.958;5.842;2022-08-27T13:28:58;3.63;;;0.70;;
39020;SDS011;25188;51.958;5.842;2022-08-27T13:31:25;2.88;;;0.45;;
39020;SDS011;25188;51.958;5.842;2022-08-27T13:33:55;5.00;;;0.60;;
39020;SDS011;25188;51.958;5.842;2022-08-27T13:36:26;2.38;;;0.47;;
39020;SDS011;25188;51.958;5.842;2022-08-27T13:38:54;3.53;;;0.40;;
39020;SDS011;25188;51.958;5.842;2022-08-27T13:41:33;3.47;;;0.55;;
39020;SDS011;25188;51.958;5.842;2022-08-27T13:44:07;1.98;;;0.40;;
39020;SDS011;25188;51.958;5.842;2022-08-27T13:46:45;2.70;;;0.40;;
39020;SDS011;25188;51.958;5.842;2022-08-27T13:49:15;2.63;;;0.50;;
39020;SDS011;25188;51.958;5.842;2022-08-27T13:51:46;4.25;;;0.60;;
39020;SDS011;25188;51.958;5.842;2022-08-27T13:54:13;3.15;;;0.50;;
39020;SDS011;25188;51.958;5.842;2022-08-27T14:02:44;2.40;;;0.57;;
39020;SDS011;25188;51.958;5.842;2022-08-27T14:04:42;2.78;;;0.43;;
39020;SDS011;25188;51.958;5.842;2022-08-27T14:09:43;2.25;;;0.40;;
39020;SDS011;25188;51.958;5.842;2022-08-27T14:17:47;4.20;;;0.93;;
39020;SDS011;25188;51.958;5.842;2022-08-27T14:20:14;3.70;;;0.47;;
39020;SDS011;25188;51.958;5.842;2022-08-27T14:22:41;3.67;;;0.55;;
39020;SDS011;25188;51.958;5.842;2022-08-27T14:25:08;2.53;;;0.57;;
39020;SDS011;25188;51.958;5.842;2022-08-27T14:27:34;5.05;;;0.50;;
39020;SDS011;25188;51.958;5.842;2022-08-27T14:30:01;2.40;;;0.52;;
39020;SDS011;25188;51.958;5.842;2022-08-27T14:32:28;3.00;;;0.50;;
39020;SDS011;25188;51.958;5.842;2022-08-27T14:34:54;3.40;;;0.50;;
39020;SDS011;25188;51.958;5.842;2022-08-27T14:37:19;3.85;;;0.60;;
39020;SDS011;25188;51.958;5.842;2022-08-27T14:39:45;2.83;;;0.52;;
39020;SDS011;25188;51.958;5.842;2022-08-27T14:42:13;3.30;;;0.50;;
39020;SDS011;25188;51.958;5.842;2022-08-27T14:44:41;2.45;;;0.50;;
39020;SDS011;25188;51.958;5.842;2022-08-27T14:47:07;2.90;;;0.40;;
39020;SDS011;25188;51.958;5.842;2022-08-27T14:49:35;1.98;;;0.35;;
39020;SDS011;25188;51.958;5.842;2022-08-27T14:52:03;3.85;;;0.68;;
39020;SDS011;25188;51.958;5.842;2022-08-27T14:54:30;1.58;;;0.43;;
39020;SDS011;25188;51.958;5.842;2022-08-27T14:56:57;2.20;;;0.40;;
39020;SDS011;25188;51.958;5.842;2022-08-27T14:59:23;2.75;;;0.70;;
39020;SDS011;25188;51.958;5.842;2022-08-27T15:01:50;2.88;;;0.50;;
39020;SDS011;25188;51.958;5.842;2022-08-27T15:04:17;3.35;;;0.70;;
39020;SDS011;25188;51.958;5.842;2022-08-27T15:06:43;3.00;;;0.60;;
39020;SDS011;25188;51.958;5.842;2022-08-27T15:09:08;3.53;;;0.57;;
39020;SDS011;25188;51.958;5.842;2022-08-27T15:11:34;2.22;;;0.50;;
39020;SDS011;25188;51.958;5.842;2022-08-27T15:14:03;3.60;;;0.50;;
39020;SDS011;25188;51.958;5.842;2022-08-27T15:16:35;2.58;;;0.55;;
39020;SDS011;25188;51.958;5.842;2022-08-27T15:19:04;2.03;;;0.50;;
39020;SDS011;25188;51.958;5.842;2022-08-27T15:21:31;5.72;;;0.30;;
39020;SDS011;25188;51.958;5.842;2022-08-27T15:24:04;3.65;;;0.90;;
39020;SDS011;25188;51.958;5.842;2022-08-27T15:26:37;2.63;;;0.50;;
39020;SDS011;25188;51.958;5.842;2022-08-27T15:29:02;3.90;;;0.60;;
39020;SDS011;25188;51.958;5.842;2022-08-27T15:31:28;3.05;;;0.32;;
39020;SDS011;25188;51.958;5.842;2022-08-27T15:33:54;1.90;;;0.55;;
39020;SDS011;25188;51.958;5.842;2022-08-27T15:36:19;3.38;;;0.40;;
39020;SDS011;25188;51.958;5.842;2022-08-27T15:38:45;2.33;;;0.40;;
39020;SDS011;25188;51.958;5.842;2022-08-27T15:41:11;2.72;;;0.60;;
39020;SDS011;25188;51.958;5.842;2022-08-27T15:43:37;2.75;;;0.60;;
39020;SDS011;25188;51.958;5.842;2022-08-27T15:46:03;6.03;;;0.52;;
39020;SDS011;25188;51.958;5.842;2022-08-27T15:48:30;3.25;;;0.40;;
39020;SDS011;25188;51.958;5.842;2022-08-27T15:50:56;5.25;;;0.50;;
39020;SDS011;25188;51.958;5.842;2022-08-27T15:53:28;1.60;;;0.40;;
39020;SDS011;25188;51.958;5.842;2022-08-27T15:55:54;2.72;;;0.50;;
39020;SDS011;25188;51.958;5.842;2022-08-27T15:58:20;4.40;;;0.70;;
39020;SDS011;25188;51.958;5.842;2022-08-27T16:00:46;2.72;;;0.50;;
39020;SDS011;25188;51.958;5.842;2022-08-27T16:03:12;4.07;;;0.70;;
39020;SDS011;25188;51.958;5.842;2022-08-27T16:05:40;4.13;;;0.60;;
39020;SDS011;25188;51.958;5.842;2022-08-27T16:08:08;2.30;;;0.55;;
39020;SDS011;25188;51.958;5.842;2022-08-27T16:10:35;3.90;;;0.50;;
39020;SDS011;25188;51.958;5.842;2022-08-27T16:13:01;3.63;;;0.75;;
39020;SDS011;25188;51.958;5.842;2022-08-27T16:15:27;3.72;;;0.73;;
39020;SDS011;25188;51.958;5.842;2022-08-27T16:17:55;1.95;;;0.63;;
39020;SDS011;25188;51.958;5.842;2022-08-27T16:20:23;2.47;;;0.65;;
39020;SDS011;25188;51.958;5.842;2022-08-27T16:22:50;5.13;;;0.82;;
39020;SDS011;25188;51.958;5.842;2022-08-27T16:25:20;1.95;;;0.50;;
39020;SDS011;25188;51.958;5.842;2022-08-27T16:27:47;2.85;;;0.60;;
39020;SDS011;25188;51.958;5.842;2022-08-27T16:30:16;2.83;;;0.45;;
39020;SDS011;25188;51.958;5.842;2022-08-27T16:32:47;2.80;;;0.68;;
39020;SDS011;25188;51.958;5.842;2022-08-27T16:35:16;2.72;;;0.70;;
39020;SDS011;25188;51.958;5.842;2022-08-27T16:37:42;2.83;;;0.50;;
39020;SDS011;25188;51.958;5.842;2022-08-27T16:40:09;2.30;;;0.52;;
39020;SDS011;25188;51.958;5.842;2022-08-27T16:42:37;3.75;;;0.50;;